createdAt,value
2022-12-27T00:01:45.457Z,2.00
2022-12-27T00:04:13.748Z,1.90
2022-12-27T00:06:42.253Z,1.90
2022-12-27T00:09:10.987Z,1.75
2022-12-27T00:11:39.826Z,1.98
2022-12-27T00:14:08.400Z,2.15
2022-12-27T00:16:38.699Z,2.10
2022-12-27T00:19:07.226Z,2.20
2022-12-27T00:21:36.602Z,1.90
2022-12-27T00:24:05.269Z,2.17
2022-12-27T00:26:34.752Z,2.20
2022-12-27T00:29:03.152Z,2.20
2022-12-27T00:31:32.586Z,2.13
2022-12-27T00:34:04.098Z,1.98
2022-12-27T00:36:32.900Z,2.20
2022-12-27T00:39:01.964Z,2.35
2022-12-27T00:41:30.295Z,2.17
2022-12-27T00:43:58.511Z,2.00
2022-12-27T00:46:26.769Z,2.10
2022-12-27T00:48:55.415Z,2.30
2022-12-27T00:51:26.331Z,2.67
2022-12-27T00:53:54.844Z,2.13
2022-12-27T00:56:25.581Z,2.30
2022-12-27T00:58:55.183Z,2.10
2022-12-27T01:01:24.677Z,2.20
2022-12-27T01:03:53.371Z,2.10
2022-12-27T01:06:23.353Z,2.50
2022-12-27T01:08:53.101Z,2.38
2022-12-27T01:11:21.428Z,2.20
2022-12-27T01:13:49.936Z,2.33
2022-12-27T01:16:20.296Z,2.10
2022-12-27T01:18:49.303Z,2.15
2022-12-27T01:21:19.623Z,2.20
2022-12-27T01:23:48.190Z,2.40
2022-12-27T01:26:19.659Z,2.33
2022-12-27T01:28:48.556Z,2.20
2022-12-27T01:31:19.008Z,2.60
2022-12-27T01:33:47.449Z,2.55
2022-12-27T01:36:25.093Z,2.20
2022-12-27T01:38:53.656Z,2.22
2022-12-27T01:41:42.859Z,2.00
2022-12-27T01:44:50.238Z,2.17
2022-12-27T01:47:23.119Z,2.30
2022-12-27T01:49:57.651Z,2.15
2022-12-27T01:52:28.173Z,2.00
2022-12-27T01:55:00.005Z,2.28
2022-12-27T01:57:29.951Z,2.30
2022-12-27T01:59:58.313Z,2.30
2022-12-27T02:02:26.822Z,2.70
2022-12-27T02:04:55.447Z,2.22
2022-12-27T02:07:26.412Z,2.33
2022-12-27T02:09:58.163Z,2.10
2022-12-27T02:12:26.856Z,2.20
2022-12-27T02:14:56.467Z,2.25
2022-12-27T02:17:27.892Z,2.53
2022-12-27T02:20:01.348Z,2.00
2022-12-27T02:23:15.695Z,2.08
2022-12-27T02:26:09.071Z,2.00
2022-12-27T02:28:53.049Z,2.00
2022-12-27T02:31:28.650Z,2.30
2022-12-27T02:33:58.640Z,2.38
2022-12-27T02:36:29.190Z,2.03
2022-12-27T02:38:59.194Z,2.22
2022-12-27T02:41:46.156Z,2.10
2022-12-27T02:44:34.053Z,2.25
2022-12-27T02:47:19.992Z,2.35
2022-12-27T02:50:05.980Z,2.47
2022-12-27T02:52:59.626Z,2.33
2022-12-27T02:55:35.950Z,2.25
2022-12-27T02:58:20.240Z,2.22
2022-12-27T03:01:18.287Z,2.58
2022-12-27T03:03:57.012Z,2.20
2022-12-27T03:06:49.929Z,2.60
2022-12-27T03:09:51.309Z,2.45
2022-12-27T03:12:43.412Z,2.10
2022-12-27T03:15:44.712Z,2.40
2022-12-27T03:18:18.301Z,2.40
2022-12-27T03:21:05.800Z,2.40
2022-12-27T03:23:52.279Z,2.47
2022-12-27T03:26:21.105Z,2.65
2022-12-27T03:29:08.227Z,2.10
2022-12-27T03:31:57.200Z,2.33
2022-12-27T03:34:32.898Z,2.28
2022-12-27T03:37:20.830Z,2.40
2022-12-27T03:39:53.232Z,2.40
2022-12-27T03:42:42.697Z,2.50
2022-12-27T03:45:11.366Z,2.60
2022-12-27T03:47:43.803Z,2.58
2022-12-27T03:50:17.740Z,2.40
2022-12-27T03:52:49.201Z,2.63
2022-12-27T03:55:18.311Z,2.33
2022-12-27T03:57:46.633Z,2.40
2022-12-27T04:00:15.701Z,2.30
2022-12-27T04:02:44.611Z,2.60
2022-12-27T04:05:14.308Z,2.60
2022-12-27T04:08:00.261Z,2.80
2022-12-27T04:10:46.453Z,2.67
2022-12-27T04:13:32.349Z,2.80
2022-12-27T04:16:18.271Z,2.70
2022-12-27T04:19:04.191Z,2.50
2022-12-27T04:21:51.373Z,2.58
2022-12-27T04:24:37.276Z,2.60
2022-12-27T04:27:23.295Z,2.90
2022-12-27T04:30:09.210Z,2.80
2022-12-27T04:32:55.071Z,2.60
2022-12-27T04:35:23.429Z,3.10
2022-12-27T04:37:53.140Z,2.90
2022-12-27T04:40:39.056Z,2.50
2022-12-27T04:43:25.008Z,2.53
2022-12-27T04:46:11.038Z,2.20
2022-12-27T04:48:56.809Z,2.38
2022-12-27T04:51:42.730Z,2.60
2022-12-27T04:54:34.154Z,3.10
2022-12-27T04:57:02.453Z,2.67
2022-12-27T04:59:48.299Z,2.60
2022-12-27T05:02:17.018Z,3.35
2022-12-27T05:04:45.882Z,2.95
2022-12-27T05:07:32.460Z,2.50
2022-12-27T05:10:22.178Z,3.13
2022-12-27T05:13:08.123Z,3.08
2022-12-27T05:15:36.411Z,3.03
2022-12-27T05:18:04.966Z,3.00
2022-12-27T05:20:34.825Z,2.90
2022-12-27T05:23:20.873Z,3.60
2022-12-27T05:25:50.602Z,5.07
2022-12-27T05:28:18.869Z,3.23
2022-12-27T05:30:47.140Z,3.10
2022-12-27T05:33:15.485Z,2.95
2022-12-27T05:35:43.948Z,2.90
2022-12-27T05:38:12.198Z,3.15
2022-12-27T05:40:40.486Z,3.00
2022-12-27T05:43:10.097Z,2.90
2022-12-27T05:45:38.364Z,3.15
2022-12-27T05:48:07.129Z,3.20
2022-12-27T05:50:35.341Z,3.30
2022-12-27T05:53:03.601Z,3.47
2022-12-27T05:55:31.841Z,3.30
2022-12-27T05:58:00.130Z,3.55
2022-12-27T06:00:29.715Z,3.10
2022-12-27T06:02:58.270Z,3.40
2022-12-27T06:05:26.721Z,3.20
2022-12-27T06:07:55.118Z,3.20
2022-12-27T06:10:23.394Z,3.55
2022-12-27T06:12:51.739Z,3.20
2022-12-27T06:15:20.001Z,3.30
2022-12-27T06:17:49.603Z,3.28
2022-12-27T06:20:18.507Z,3.40
2022-12-27T06:22:47.116Z,3.30
2022-12-27T06:25:15.497Z,3.10
2022-12-27T06:27:43.810Z,3.10
2022-12-27T06:30:13.381Z,3.30
2022-12-27T06:32:41.655Z,3.20
2022-12-27T06:35:11.802Z,3.50
2022-12-27T06:37:40.068Z,3.38
2022-12-27T06:40:09.356Z,3.13
2022-12-27T06:42:37.647Z,3.10
2022-12-27T06:45:09.358Z,3.30
2022-12-27T06:47:37.706Z,3.38
2022-12-27T06:50:06.736Z,3.05
2022-12-27T06:52:36.385Z,3.38
2022-12-27T06:55:05.010Z,3.50
2022-12-27T06:57:33.669Z,3.10
2022-12-27T07:00:02.003Z,3.28
2022-12-27T07:02:30.332Z,3.20
2022-12-27T07:04:58.673Z,3.08
2022-12-27T07:07:27.111Z,3.10
2022-12-27T07:09:56.775Z,3.25
2022-12-27T07:12:25.125Z,3.70
2022-12-27T07:14:53.415Z,3.40
2022-12-27T07:17:21.705Z,3.30
2022-12-27T07:19:49.993Z,3.40
2022-12-27T07:22:18.284Z,5.03
2022-12-27T07:24:46.662Z,7.05
2022-12-27T07:27:16.354Z,4.03
2022-12-27T07:29:45.834Z,3.70
2022-12-27T07:32:14.296Z,3.30
2022-12-27T07:34:42.609Z,3.40
2022-12-27T07:37:10.959Z,2.90
2022-12-27T07:39:39.212Z,3.22
2022-12-27T07:42:08.620Z,3.40
2022-12-27T07:44:38.677Z,3.22
2022-12-27T07:47:07.772Z,3.40
2022-12-27T07:49:36.207Z,3.20
2022-12-27T07:52:04.580Z,3.17
2022-12-27T07:54:32.905Z,3.00
2022-12-27T07:57:01.212Z,3.10
2022-12-27T07:59:29.510Z,2.95
2022-12-27T08:02:08.100Z,3.10
2022-12-27T08:04:38.430Z,3.00
2022-12-27T08:07:08.516Z,3.00
2022-12-27T08:09:38.357Z,3.20
2022-12-27T08:12:07.776Z,3.10
2022-12-27T08:14:36.064Z,3.60
2022-12-27T08:17:08.506Z,4.45
2022-12-27T08:19:36.962Z,3.85
2022-12-27T08:22:06.268Z,3.72
2022-12-27T08:24:34.608Z,3.85
2022-12-27T08:27:03.047Z,4.05
2022-12-27T08:29:31.606Z,3.60
2022-12-27T08:31:59.994Z,3.58
2022-12-27T08:34:29.603Z,3.40
2022-12-27T08:36:57.928Z,3.53
2022-12-27T08:39:26.319Z,3.38
2022-12-27T08:41:54.938Z,3.50
2022-12-27T08:44:23.741Z,3.55
2022-12-27T08:46:52.200Z,3.22
2022-12-27T08:49:20.515Z,3.38
2022-12-27T08:51:51.397Z,3.55
2022-12-27T08:54:19.623Z,3.00
2022-12-27T08:56:47.975Z,3.20
2022-12-27T08:59:16.309Z,2.92
2022-12-27T09:01:44.711Z,2.80
2022-12-27T09:04:13.033Z,2.80
2022-12-27T09:06:42.180Z,3.08
2022-12-27T09:09:11.884Z,2.95
2022-12-27T09:11:40.224Z,2.90
2022-12-27T09:14:08.506Z,2.70
2022-12-27T09:16:36.825Z,2.60
2022-12-27T09:19:05.238Z,3.30
2022-12-27T09:21:34.875Z,3.50
2022-12-27T09:24:04.091Z,5.22
2022-12-27T09:26:33.844Z,3.30
2022-12-27T09:29:02.229Z,3.07
2022-12-27T09:31:30.718Z,3.05
2022-12-27T09:33:59.531Z,3.10
2022-12-27T09:36:29.115Z,2.80
2022-12-27T09:38:59.004Z,3.40
2022-12-27T09:44:31.950Z,3.40
2022-12-27T09:47:05.413Z,3.10
2022-12-27T09:49:38.525Z,3.20
2022-12-27T09:52:11.577Z,3.35
2022-12-27T09:54:52.269Z,3.47
2022-12-27T09:59:56.676Z,2.90
2022-12-27T10:02:25.924Z,2.80
2022-12-27T10:07:50.963Z,2.60
2022-12-27T10:10:26.300Z,3.00
2022-12-27T10:13:09.913Z,2.70
2022-12-27T10:15:44.038Z,2.95
2022-12-27T10:18:19.825Z,2.78
2022-12-27T10:20:56.656Z,2.70
2022-12-27T10:23:26.456Z,2.80
2022-12-27T10:26:00.330Z,2.88
2022-12-27T10:28:37.800Z,2.58
2022-12-27T10:31:06.601Z,2.35
2022-12-27T10:33:35.404Z,2.40
2022-12-27T10:36:10.707Z,2.80
2022-12-27T10:38:38.928Z,2.50
2022-12-27T10:41:20.053Z,2.58
2022-12-27T10:43:52.689Z,2.53
2022-12-27T10:46:26.323Z,2.40
2022-12-27T10:51:50.131Z,2.17
2022-12-27T10:54:22.228Z,2.10
2022-12-27T10:56:50.773Z,2.35
2022-12-27T10:59:21.892Z,2.10
2022-12-27T11:01:51.970Z,2.30
2022-12-27T11:04:21.956Z,2.03
2022-12-27T11:06:52.622Z,2.40
2022-12-27T11:12:18.766Z,2.10
2022-12-27T11:14:59.302Z,2.08
2022-12-27T11:17:30.730Z,1.95
2022-12-27T11:20:00.146Z,2.13
2022-12-27T11:22:28.443Z,2.20
2022-12-27T11:24:58.425Z,2.17
2022-12-27T11:27:28.643Z,2.08
2022-12-27T11:30:00.232Z,2.10
2022-12-27T11:32:28.614Z,2.00
2022-12-27T11:34:57.477Z,2.28
2022-12-27T11:37:27.407Z,2.10
2022-12-27T11:39:56.699Z,2.17
2022-12-27T11:42:32.479Z,2.20
2022-12-27T11:45:07.159Z,2.00
2022-12-27T11:47:40.421Z,2.10
2022-12-27T11:50:26.381Z,2.50
2022-12-27T11:53:18.143Z,1.92
2022-12-27T11:56:20.557Z,2.00
2022-12-27T11:59:11.407Z,2.10
2022-12-27T12:02:08.889Z,1.80
2022-12-27T12:05:04.876Z,1.90
2022-12-27T12:07:48.812Z,1.88
2022-12-27T12:10:25.863Z,2.03
2022-12-27T12:13:11.179Z,1.80
2022-12-27T12:15:50.288Z,1.90
2022-12-27T12:18:35.417Z,1.80
2022-12-27T12:21:22.310Z,1.95
2022-12-27T12:24:25.803Z,1.80
2022-12-27T12:27:06.827Z,1.80
2022-12-27T12:29:47.443Z,2.00
2022-12-27T12:32:25.887Z,2.08
2022-12-27T12:35:16.382Z,2.00
2022-12-27T12:38:03.684Z,2.03
2022-12-27T12:40:53.568Z,2.00
2022-12-27T12:43:36.156Z,1.90
2022-12-27T12:46:15.022Z,1.83
2022-12-27T12:49:05.458Z,1.80
2022-12-27T12:52:01.568Z,1.90
2022-12-27T12:54:48.369Z,2.17
2022-12-27T12:57:27.038Z,1.90
2022-12-27T13:00:08.944Z,2.22
2022-12-27T13:03:13.474Z,1.80
2022-12-27T13:05:47.069Z,1.70
2022-12-27T13:08:24.458Z,1.85
2022-12-27T13:11:14.417Z,1.98
2022-12-27T13:13:55.310Z,2.03
2022-12-27T13:16:29.258Z,1.90
2022-12-27T13:19:07.215Z,2.00
2022-12-27T13:21:52.476Z,2.10
2022-12-27T13:24:30.067Z,2.08
2022-12-27T13:27:03.618Z,1.88
2022-12-27T13:29:59.241Z,1.80
2022-12-27T13:32:41.973Z,2.00
2022-12-27T13:35:25.582Z,2.00
2022-12-27T13:38:02.777Z,2.03
2022-12-27T13:40:47.400Z,1.80
2022-12-27T13:43:37.729Z,1.80
2022-12-27T13:46:17.503Z,2.00
2022-12-27T13:48:57.244Z,1.93
2022-12-27T13:51:42.411Z,1.90
2022-12-27T13:54:46.238Z,1.98
2022-12-27T13:57:27.742Z,1.80
2022-12-27T14:00:09.068Z,1.83
2022-12-27T14:02:52.372Z,1.80
2022-12-27T14:06:01.935Z,2.05
2022-12-27T14:08:41.914Z,1.88
2022-12-27T14:11:23.052Z,2.15
2022-12-27T14:13:52.888Z,1.80
2022-12-27T14:16:29.945Z,1.90
2022-12-27T14:19:10.458Z,2.05
2022-12-27T14:21:59.434Z,2.10
2022-12-27T14:24:46.489Z,2.00
2022-12-27T14:28:04.693Z,2.00
2022-12-27T14:30:52.425Z,2.58
2022-12-27T14:33:56.505Z,2.17
2022-12-27T14:36:39.456Z,2.38
2022-12-27T14:39:39.333Z,2.10
2022-12-27T14:43:02.651Z,2.33
2022-12-27T14:45:57.673Z,2.20
2022-12-27T14:48:53.095Z,2.22
2022-12-27T14:52:00.344Z,2.17
2022-12-27T14:55:12.722Z,2.05
2022-12-27T14:57:48.772Z,2.30
2022-12-27T15:00:18.664Z,2.22
2022-12-27T15:03:03.966Z,2.22
2022-12-27T15:05:46.765Z,2.30
2022-12-27T15:08:35.080Z,2.30
2022-12-27T15:11:20.243Z,2.45
2022-12-27T15:14:01.101Z,2.30
2022-12-27T15:16:38.273Z,2.30
2022-12-27T15:19:21.079Z,2.60
2022-12-27T15:21:56.327Z,2.80
2022-12-27T15:24:32.169Z,2.65
2022-12-27T15:27:05.072Z,2.42
2022-12-27T15:29:43.554Z,4.60
2022-12-27T15:32:23.191Z,2.72
2022-12-27T15:35:04.965Z,3.42
2022-12-27T15:38:01.227Z,5.30
2022-12-27T15:40:40.774Z,3.72
2022-12-27T15:43:16.798Z,3.40
2022-12-27T15:45:49.521Z,3.55
2022-12-27T15:48:37.555Z,4.13
2022-12-27T15:51:10.576Z,4.68
2022-12-27T15:53:50.548Z,4.28
2022-12-27T15:56:37.752Z,4.50
2022-12-27T15:59:48.467Z,3.95
2022-12-27T16:02:35.459Z,4.30
2022-12-27T16:05:12.807Z,6.07
2022-12-27T16:07:48.591Z,9.13
2022-12-27T16:10:38.343Z,12.13
2022-12-27T16:13:23.715Z,10.32
2022-12-27T16:15:54.282Z,8.80
2022-12-27T16:21:25.065Z,4.60
2022-12-27T16:23:57.205Z,4.82
2022-12-27T16:26:27.821Z,3.95
2022-12-27T16:31:28.419Z,6.20
2022-12-27T16:33:58.071Z,4.60
2022-12-27T16:36:29.789Z,5.90
2022-12-27T16:39:31.160Z,3.80
2022-12-27T16:42:09.653Z,3.75
2022-12-27T16:44:54.957Z,4.50
2022-12-27T16:47:48.391Z,4.43
2022-12-27T16:50:40.685Z,5.72
2022-12-27T16:53:16.754Z,6.10
2022-12-27T16:56:14.222Z,6.15
2022-12-27T16:58:42.898Z,9.65
2022-12-27T17:01:29.857Z,6.70
2022-12-27T17:03:58.982Z,5.90
2022-12-27T17:06:57.829Z,7.90
2022-12-27T17:09:41.453Z,6.35
2022-12-27T17:12:28.752Z,7.78
2022-12-27T17:15:02.983Z,10.85
2022-12-27T17:17:31.477Z,7.22
2022-12-27T17:20:03.207Z,4.50
2022-12-27T17:22:35.310Z,5.60
2022-12-27T17:25:04.915Z,16.00
2022-12-27T17:27:48.541Z,5.35
2022-12-27T17:30:21.148Z,7.65
2022-12-27T17:33:11.220Z,9.98
2022-12-27T17:35:47.795Z,7.93
2022-12-27T17:38:26.078Z,6.30
2022-12-27T17:41:04.412Z,7.30
2022-12-27T17:43:58.600Z,7.97
2022-12-27T17:46:35.939Z,9.20
2022-12-27T17:49:05.418Z,10.88
2022-12-27T17:51:35.713Z,12.18
2022-12-27T17:54:40.037Z,13.85
2022-12-27T17:57:29.516Z,10.98
2022-12-27T17:59:59.899Z,8.60
2022-12-27T18:02:34.404Z,12.52
2022-12-27T18:05:05.679Z,5.68
2022-12-27T18:07:35.199Z,4.70
2022-12-27T18:10:05.822Z,5.60
2022-12-27T18:15:08.775Z,6.00
2022-12-27T18:17:39.457Z,5.95
2022-12-27T18:22:54.660Z,5.85
2022-12-27T18:25:25.131Z,6.05
2022-12-27T18:27:59.705Z,6.15
2022-12-27T18:30:34.557Z,7.00
2022-12-27T18:33:04.171Z,6.43
2022-12-27T18:35:32.658Z,7.85
2022-12-27T18:38:01.767Z,8.80
2022-12-27T18:40:30.018Z,8.60
2022-12-27T18:42:58.358Z,8.23
2022-12-27T18:45:29.798Z,7.90
2022-12-27T18:48:00.223Z,8.63
2022-12-27T18:50:30.532Z,7.78
2022-12-27T18:53:02.158Z,7.03
2022-12-27T18:55:32.082Z,7.20
2022-12-27T18:58:06.206Z,7.13
2022-12-27T19:00:48.389Z,7.60
2022-12-27T19:03:18.467Z,8.13
2022-12-27T19:05:59.920Z,7.45
2022-12-27T19:08:41.309Z,6.57
2022-12-27T19:11:09.660Z,8.35
2022-12-27T19:13:43.247Z,8.57
2022-12-27T19:16:23.459Z,8.52
2022-12-27T19:18:54.071Z,13.88
2022-12-27T19:21:30.528Z,13.23
2022-12-27T19:23:58.806Z,12.77
2022-12-27T19:26:31.501Z,11.70
2022-12-27T19:29:03.490Z,11.20
2022-12-27T19:31:33.551Z,8.43
2022-12-27T19:34:03.442Z,9.07
2022-12-27T19:36:33.643Z,8.90
2022-12-27T19:39:03.151Z,7.38
2022-12-27T19:41:31.923Z,5.78
2022-12-27T19:44:00.176Z,6.57
2022-12-27T19:46:31.070Z,6.60
2022-12-27T19:49:32.286Z,6.47
2022-12-27T19:51:49.414Z,7.32
2022-12-27T19:54:19.448Z,7.60
2022-12-27T19:56:47.885Z,9.35
2022-12-27T19:59:18.213Z,11.98
2022-12-27T20:01:46.730Z,15.13
2022-12-27T20:04:17.727Z,11.07
2022-12-27T20:06:48.509Z,6.53
2022-12-27T20:09:19.046Z,5.60
2022-12-27T20:11:47.909Z,5.70
2022-12-27T20:14:17.655Z,5.50
2022-12-27T20:16:46.647Z,6.93
2022-12-27T20:19:18.127Z,7.60
2022-12-27T20:21:46.599Z,6.50
2022-12-27T20:24:15.141Z,6.78
2022-12-27T20:26:44.090Z,9.75
2022-12-27T20:29:12.751Z,34.53
2022-12-27T20:31:45.012Z,25.10
2022-12-27T20:34:13.910Z,8.82
2022-12-27T20:36:44.666Z,6.38
2022-12-27T20:39:12.964Z,5.95
2022-12-27T20:41:41.266Z,5.13
2022-12-27T20:44:09.580Z,7.30
2022-12-27T20:46:37.881Z,6.55
2022-12-27T20:49:06.993Z,5.00
2022-12-27T20:51:35.375Z,4.85
2022-12-27T20:54:05.157Z,4.90
2022-12-27T20:56:35.167Z,4.90
2022-12-27T20:59:03.672Z,5.32
2022-12-27T21:01:31.990Z,5.35
2022-12-27T21:04:00.595Z,5.00
2022-12-27T21:06:30.121Z,4.60
2022-12-27T21:08:59.355Z,5.32
2022-12-27T21:11:31.156Z,5.20
2022-12-27T21:14:00.731Z,5.57
2022-12-27T21:16:31.053Z,6.38
2022-12-27T21:19:02.908Z,6.30
2022-12-27T21:21:31.939Z,6.85
2022-12-27T21:24:00.271Z,6.80
2022-12-27T21:26:31.364Z,7.38
2022-12-27T21:29:00.654Z,7.65
2022-12-27T21:31:29.314Z,7.32
2022-12-27T21:33:59.185Z,8.20
2022-12-27T21:36:29.047Z,7.00
2022-12-27T21:38:57.556Z,5.70
2022-12-27T21:41:27.442Z,7.28
2022-12-27T21:43:57.099Z,7.90
2022-12-27T21:46:27.686Z,7.30
2022-12-27T21:48:58.120Z,6.90
2022-12-27T21:51:27.329Z,7.55
2022-12-27T21:53:55.809Z,6.78
2022-12-27T21:56:24.681Z,7.03
2022-12-27T21:58:55.306Z,8.10
2022-12-27T22:03:54.620Z,7.47
2022-12-27T22:06:24.885Z,7.55
2022-12-27T22:08:54.555Z,8.20
2022-12-27T22:11:24.066Z,8.63
2022-12-27T22:13:52.515Z,7.75
2022-12-27T22:16:22.229Z,8.40
2022-12-27T22:18:52.619Z,8.93
2022-12-27T22:21:22.337Z,8.35
2022-12-27T22:23:52.231Z,8.80
2022-12-27T22:26:21.894Z,8.43
2022-12-27T22:28:50.458Z,8.27
2022-12-27T22:31:20.431Z,7.88
2022-12-27T22:33:50.994Z,7.45
2022-12-27T22:36:20.572Z,7.80
2022-12-27T22:38:50.261Z,7.07
2022-12-27T22:41:21.420Z,6.60
2022-12-27T22:43:52.122Z,6.45
2022-12-27T22:46:20.734Z,6.70
2022-12-27T22:48:54.675Z,6.75
2022-12-27T22:51:24.127Z,6.47
2022-12-27T22:53:52.438Z,7.40
2022-12-27T22:56:22.344Z,7.15
2022-12-27T22:58:50.564Z,7.18
2022-12-27T23:01:20.879Z,6.22
2022-12-27T23:03:49.455Z,6.57
2022-12-27T23:06:19.228Z,6.68
2022-12-27T23:08:48.156Z,7.22
2022-12-27T23:11:18.305Z,8.73
2022-12-27T23:13:47.214Z,11.10
2022-12-27T23:16:15.843Z,8.93
2022-12-27T23:18:44.204Z,8.57
2022-12-27T23:21:21.523Z,7.90
2022-12-27T23:23:53.862Z,8.55
2022-12-27T23:26:23.622Z,7.97
2022-12-27T23:28:53.198Z,8.25
2022-12-27T23:31:22.935Z,7.95
2022-12-27T23:33:51.629Z,7.63
2022-12-27T23:36:20.584Z,6.50
2022-12-27T23:38:48.914Z,6.20
2022-12-27T23:41:20.139Z,6.38
2022-12-27T23:43:52.664Z,6.32
2022-12-27T23:46:25.005Z,7.03
2022-12-27T23:48:53.862Z,7.22
2022-12-27T23:51:22.424Z,7.65
2022-12-27T23:53:50.913Z,7.63
2022-12-27T23:56:21.821Z,8.45
2022-12-27T23:58:51.609Z,8.60
